Time;durP1;ratioP1;P1;durP2;ratioP2;P2;SDS_P1;SDS_P2;PMS_P1;PMS_P2;Temp;Humidity;BMP_temperature;BMP_pressure;BME280_temperature;BME280_humidity;BME280_pressure;Samples;Min_cycle;Max_cycle;Signal;HPM_P1;HPM_P2
2023/08/24 00:00:12;;;;;;;7.88;6.05;;;;;;;;;;5051172;28;20076;-63
2023/08/24 00:02:38;;;;;;;9.68;5.53;;;;;;;;;;5070268;28;20550;-63
2023/08/24 00:05:05;;;;;;;10.45;6.13;;;;;;;;;;5068921;28;20045;-63
2023/08/24 00:07:32;;;;;;;8.18;6.00;;;;;;;;;;5071562;28;20040;-62
2023/08/24 00:09:58;;;;;;;8.93;6.18;;;;;;;;;;5063353;28;20071;-64
2023/08/24 00:12:25;;;;;;;8.35;5.97;;;;;;;;;;5051766;28;20067;-63
2023/08/24 00:14:52;;;;;;;8.52;6.18;;;;;;;;;;5067612;28;20455;-63
2023/08/24 00:17:18;;;;;;;8.57;6.38;;;;;;;;;;5071108;28;20114;-63
2023/08/24 00:19:46;;;;;;;8.95;6.18;;;;;;;;;;5068538;28;20056;-63
2023/08/24 00:22:12;;;;;;;11.13;7.35;;;;;;;;;;5066371;28;20491;-63
2023/08/24 00:24:38;;;;;;;8.77;7.28;;;;;;;;;;5070320;28;20101;-62
2023/08/24 00:27:05;;;;;;;8.90;6.22;;;;;;;;;;5073275;28;20045;-63
2023/08/24 00:29:31;;;;;;;9.30;6.82;;;;;;;;;;5075759;28;20139;-63
2023/08/24 00:31:57;;;;;;;7.93;6.43;;;;;;;;;;5062811;28;20045;-63
2023/08/24 00:34:23;;;;;;;10.30;6.50;;;;;;;;;;5062519;28;20102;-63
2023/08/24 00:36:50;;;;;;;9.02;6.68;;;;;;;;;;5061815;28;20146;-65
2023/08/24 00:39:16;;;;;;;9.38;6.88;;;;;;;;;;5062487;28;20364;-64
2023/08/24 00:41:42;;;;;;;15.13;7.55;;;;;;;;;;5068909;28;20076;-65
2023/08/24 00:44:08;;;;;;;10.63;7.75;;;;;;;;;;5068156;28;20068;-64
2023/08/24 00:46:35;;;;;;;9.25;6.43;;;;;;;;;;5065416;28;20175;-64
2023/08/24 00:49:01;;;;;;;10.05;7.20;;;;;;;;;;5063842;28;20172;-63
2023/08/24 00:51:27;;;;;;;10.95;7.03;;;;;;;;;;5060055;28;20040;-67
2023/08/24 00:53:54;;;;;;;11.40;7.20;;;;;;;;;;5070545;28;20054;-63
2023/08/24 00:56:24;;;;;;;9.68;7.13;;;;;;;;;;5056199;28;20451;-64
2023/08/24 00:58:50;;;;;;;7.88;6.40;;;;;;;;;;5062934;28;20109;-63
2023/08/24 01:01:19;;;;;;;9.90;7.88;;;;;;;;;;5059339;28;20137;-63
2023/08/24 01:03:45;;;;;;;10.35;7.18;;;;;;;;;;5073839;28;20080;-66
2023/08/24 01:06:11;;;;;;;7.93;7.13;;;;;;;;;;5061925;28;20123;-63
2023/08/24 01:08:37;;;;;;;10.95;6.20;;;;;;;;;;5057288;28;20055;-64
2023/08/24 01:11:15;;;;;;;6.35;5.40;;;;;;;;;;5062393;28;20143;-63
2023/08/24 01:13:56;;;;;;;8.82;5.68;;;;;;;;;;5057451;28;20072;-62
2023/08/24 01:16:27;;;;;;;9.18;6.80;;;;;;;;;;5069970;28;20137;-62
2023/08/24 01:18:56;;;;;;;8.38;5.63;;;;;;;;;;5060801;28;20577;-63
2023/08/24 01:21:22;;;;;;;7.82;5.93;;;;;;;;;;5067848;28;20154;-63
2023/08/24 01:24:04;;;;;;;7.15;5.78;;;;;;;;;;5066949;28;20052;-63
2023/08/24 01:26:30;;;;;;;9.48;6.35;;;;;;;;;;5065134;28;20084;-62
2023/08/24 01:28:57;;;;;;;13.88;6.38;;;;;;;;;;5058936;28;20106;-63
2023/08/24 01:31:25;;;;;;;9.95;6.15;;;;;;;;;;5067253;28;20304;-64
2023/08/24 01:33:51;;;;;;;7.95;6.60;;;;;;;;;;5064137;28;20484;-62
2023/08/24 01:36:17;;;;;;;13.88;7.47;;;;;;;;;;5073237;28;20036;-62
2023/08/24 01:38:45;;;;;;;10.63;7.20;;;;;;;;;;5061699;28;20037;-63
2023/08/24 01:41:17;;;;;;;10.30;7.50;;;;;;;;;;5053750;28;20349;-64
2023/08/24 01:43:45;;;;;;;9.35;5.80;;;;;;;;;;5066669;28;20124;-64
2023/08/24 01:46:16;;;;;;;11.85;6.95;;;;;;;;;;5059816;28;20037;-63
2023/08/24 01:48:43;;;;;;;8.80;7.15;;;;;;;;;;5066037;28;20048;-63
2023/08/24 01:51:10;;;;;;;8.15;6.60;;;;;;;;;;5081150;28;20037;-64
2023/08/24 01:53:36;;;;;;;11.57;6.88;;;;;;;;;;5082998;28;20491;-64
2023/08/24 01:56:08;;;;;;;8.75;7.03;;;;;;;;;;5084348;28;20040;-63
2023/08/24 01:58:35;;;;;;;8.15;6.05;;;;;;;;;;5075508;28;20067;-63
2023/08/24 02:01:01;;;;;;;10.52;6.78;;;;;;;;;;5073698;28;20479;-63
2023/08/24 02:03:33;;;;;;;11.20;7.88;;;;;;;;;;5078267;28;20058;-64
2023/08/24 02:05:59;;;;;;;11.52;6.28;;;;;;;;;;5080180;28;20056;-63
2023/08/24 02:08:26;;;;;;;10.60;7.72;;;;;;;;;;5081514;28;20166;-63
2023/08/24 02:10:52;;;;;;;11.82;7.70;;;;;;;;;;5080342;28;20032;-63
2023/08/24 02:13:18;;;;;;;10.73;7.07;;;;;;;;;;5079267;28;20403;-64
2023/08/24 02:15:44;;;;;;;8.68;6.20;;;;;;;;;;5080892;28;20151;-61
2023/08/24 02:18:10;;;;;;;10.75;6.55;;;;;;;;;;5078612;28;20581;-62
2023/08/24 02:20:37;;;;;;;11.40;6.80;;;;;;;;;;5078809;28;20491;-63
2023/08/24 02:23:04;;;;;;;10.07;6.97;;;;;;;;;;5078867;28;20137;-62
2023/08/24 02:25:30;;;;;;;9.30;7.18;;;;;;;;;;5073494;28;20032;-61
2023/08/24 02:27:56;;;;;;;11.88;6.78;;;;;;;;;;5079307;28;20416;-63
2023/08/24 02:30:22;;;;;;;7.95;6.47;;;;;;;;;;5079511;28;20040;-62
2023/08/24 02:32:48;;;;;;;11.57;7.38;;;;;;;;;;5075079;28;20040;-63
2023/08/24 02:35:15;;;;;;;10.25;6.32;;;;;;;;;;5074901;28;20140;-63
2023/08/24 02:37:41;;;;;;;8.10;7.13;;;;;;;;;;5074524;28;20053;-63
2023/08/24 02:40:09;;;;;;;9.57;6.75;;;;;;;;;;5059555;28;20050;-64
2023/08/24 02:42:36;;;;;;;11.77;7.30;;;;;;;;;;5069120;28;20043;-63
2023/08/24 02:45:02;;;;;;;12.40;7.88;;;;;;;;;;5064503;28;20047;-63
2023/08/24 02:47:28;;;;;;;10.30;7.15;;;;;;;;;;5061349;28;20094;-63
2023/08/24 02:49:54;;;;;;;8.82;6.70;;;;;;;;;;5064644;28;20457;-63
2023/08/24 02:52:21;;;;;;;10.98;6.93;;;;;;;;;;5063260;28;20067;-62
2023/08/24 02:54:47;;;;;;;8.88;6.85;;;;;;;;;;5081321;28;20032;-62
2023/08/24 02:57:13;;;;;;;10.27;6.60;;;;;;;;;;5074973;28;20036;-63
2023/08/24 02:59:39;;;;;;;11.65;7.68;;;;;;;;;;5064519;28;20186;-62
2023/08/24 03:02:05;;;;;;;12.57;7.20;;;;;;;;;;5068109;28;20041;-63
2023/08/24 03:04:31;;;;;;;8.30;6.78;;;;;;;;;;5067747;28;20072;-63
2023/08/24 03:06:57;;;;;;;10.65;6.95;;;;;;;;;;5075866;28;20055;-62
2023/08/24 03:09:23;;;;;;;8.25;6.90;;;;;;;;;;5069241;28;20091;-63
2023/08/24 03:11:49;;;;;;;10.98;6.97;;;;;;;;;;5073289;28;20048;-63
2023/08/24 03:14:16;;;;;;;8.88;7.00;;;;;;;;;;5070231;28;20036;-62
2023/08/24 03:16:42;;;;;;;9.15;6.55;;;;;;;;;;5067302;28;20048;-62
2023/08/24 03:19:08;;;;;;;11.93;7.35;;;;;;;;;;5079557;28;20124;-62
2023/08/24 03:21:34;;;;;;;14.38;8.82;;;;;;;;;;5075141;28;20047;-61
2023/08/24 03:24:00;;;;;;;12.70;7.53;;;;;;;;;;5077823;28;20471;-63
2023/08/24 03:26:26;;;;;;;13.23;7.80;;;;;;;;;;5080158;28;20494;-62
2023/08/24 03:28:53;;;;;;;12.85;7.45;;;;;;;;;;5084252;28;20047;-63
2023/08/24 03:31:19;;;;;;;9.23;6.70;;;;;;;;;;5072209;28;20507;-63
2023/08/24 03:33:46;;;;;;;9.98;7.82;;;;;;;;;;5054184;28;20086;-63
2023/08/24 03:36:13;;;;;;;10.32;7.03;;;;;;;;;;5056971;28;20102;-62
2023/08/24 03:38:39;;;;;;;8.10;7.07;;;;;;;;;;5065787;28;20082;-63
2023/08/24 03:41:06;;;;;;;8.85;6.45;;;;;;;;;;5070102;28;20040;-63
2023/08/24 03:43:33;;;;;;;14.10;8.55;;;;;;;;;;5060758;28;20078;-62
2023/08/24 03:46:00;;;;;;;11.00;7.78;;;;;;;;;;5061238;28;20028;-63
2023/08/24 03:48:26;;;;;;;9.50;6.63;;;;;;;;;;5062387;28;20048;-63
2023/08/24 03:50:55;;;;;;;8.73;6.78;;;;;;;;;;5068857;28;20249;-64
2023/08/24 03:53:21;;;;;;;11.30;7.07;;;;;;;;;;5051900;28;20119;-63
2023/08/24 03:55:49;;;;;;;12.48;7.90;;;;;;;;;;5057405;28;20036;-64
2023/08/24 03:58:15;;;;;;;12.77;8.05;;;;;;;;;;5057176;28;20063;-63
2023/08/24 04:00:41;;;;;;;8.38;6.43;;;;;;;;;;5054016;28;20091;-63
2023/08/24 04:03:08;;;;;;;14.30;6.88;;;;;;;;;;5060586;28;20045;-63
2023/08/24 04:05:34;;;;;;;10.40;7.70;;;;;;;;;;5060956;28;20124;-63
2023/08/24 04:08:04;;;;;;;8.07;6.22;;;;;;;;;;5061786;28;20063;-61
2023/08/24 04:10:30;;;;;;;8.98;5.90;;;;;;;;;;5063653;28;20028;-63
2023/08/24 04:12:57;;;;;;;10.43;7.72;;;;;;;;;;5066768;28;20396;-63
2023/08/24 04:15:23;;;;;;;8.07;5.53;;;;;;;;;;5069537;28;20045;-63
2023/08/24 04:17:50;;;;;;;8.50;6.32;;;;;;;;;;5068934;28;20111;-63
2023/08/24 04:20:16;;;;;;;13.40;6.47;;;;;;;;;;5055253;28;20037;-62
2023/08/24 04:22:42;;;;;;;8.98;6.75;;;;;;;;;;5074731;28;20052;-63
2023/08/24 04:25:08;;;;;;;8.90;5.97;;;;;;;;;;5061766;28;20503;-61
2023/08/24 04:27:35;;;;;;;13.68;7.82;;;;;;;;;;5062038;28;20387;-62
2023/08/24 04:30:01;;;;;;;13.20;7.60;;;;;;;;;;5051854;28;20173;-62
2023/08/24 04:32:28;;;;;;;8.95;6.97;;;;;;;;;;5042095;28;20040;-62
2023/08/24 04:34:54;;;;;;;11.70;7.32;;;;;;;;;;5045281;28;20131;-62
2023/08/24 04:37:20;;;;;;;10.00;6.28;;;;;;;;;;5048687;28;20098;-62
2023/08/24 04:39:46;;;;;;;14.70;6.55;;;;;;;;;;5045744;28;20060;-61
2023/08/24 04:42:13;;;;;;;8.98;5.95;;;;;;;;;;5049287;28;20265;-63
2023/08/24 04:44:39;;;;;;;8.73;6.75;;;;;;;;;;5048237;28;20143;-62
2023/08/24 04:47:05;;;;;;;9.27;6.40;;;;;;;;;;5049642;28;20042;-63
2023/08/24 04:49:31;;;;;;;12.95;6.00;;;;;;;;;;5053657;28;20154;-62
2023/08/24 04:51:57;;;;;;;9.65;5.75;;;;;;;;;;5056655;28;20048;-63
2023/08/24 04:54:23;;;;;;;11.23;6.45;;;;;;;;;;5050530;28;20098;-62
2023/08/24 04:56:49;;;;;;;7.00;5.30;;;;;;;;;;5044098;28;20071;-62
2023/08/24 04:59:16;;;;;;;7.55;5.57;;;;;;;;;;5046970;28;20044;-60
2023/08/24 05:01:42;;;;;;;10.52;6.68;;;;;;;;;;5046249;28;20127;-64
2023/08/24 05:04:08;;;;;;;8.40;6.05;;;;;;;;;;5055691;28;20586;-62
2023/08/24 05:06:34;;;;;;;7.53;6.00;;;;;;;;;;5049620;28;20257;-62
2023/08/24 05:09:00;;;;;;;12.63;6.32;;;;;;;;;;5049161;28;20123;-62
2023/08/24 05:11:29;;;;;;;7.97;6.03;;;;;;;;;;5050708;28;20041;-62
2023/08/24 05:13:56;;;;;;;8.57;5.43;;;;;;;;;;5048003;28;20189;-63
2023/08/24 05:16:22;;;;;;;10.55;6.18;;;;;;;;;;5061645;28;20391;-62
2023/08/24 05:18:48;;;;;;;10.05;6.07;;;;;;;;;;5061333;28;20678;-62
2023/08/24 05:21:14;;;;;;;7.57;6.35;;;;;;;;;;5054753;28;20100;-62
2023/08/24 05:23:40;;;;;;;14.35;6.38;;;;;;;;;;5051469;28;20869;-62
2023/08/24 05:26:06;;;;;;;7.57;5.78;;;;;;;;;;5051880;28;20037;-62
2023/08/24 05:28:33;;;;;;;8.85;4.85;;;;;;;;;;5033980;28;20045;-63
2023/08/24 05:30:59;;;;;;;10.32;5.93;;;;;;;;;;5052113;28;20458;-63
2023/08/24 05:33:27;;;;;;;6.93;5.25;;;;;;;;;;5059523;28;20107;-63
2023/08/24 05:35:53;;;;;;;8.05;5.00;;;;;;;;;;5059420;28;20143;-61
2023/08/24 05:38:19;;;;;;;9.55;5.88;;;;;;;;;;5047407;28;20044;-61
2023/08/24 05:40:49;;;;;;;7.95;4.90;;;;;;;;;;5052970;28;20218;-63
2023/08/24 05:43:15;;;;;;;8.50;4.75;;;;;;;;;;5039532;28;20044;-62
2023/08/24 05:45:44;;;;;;;7.95;5.13;;;;;;;;;;5047901;28;20278;-62
2023/08/24 05:48:11;;;;;;;7.47;5.18;;;;;;;;;;5043966;28;20147;-62
2023/08/24 05:50:37;;;;;;;10.45;6.38;;;;;;;;;;5058020;28;20044;-63
2023/08/24 05:53:04;;;;;;;10.70;6.03;;;;;;;;;;5020189;28;20047;-63
2023/08/24 05:55:30;;;;;;;9.02;5.30;;;;;;;;;;5049093;28;20492;-63
2023/08/24 05:57:56;;;;;;;7.20;4.55;;;;;;;;;;5045683;28;20151;-63
2023/08/24 06:00:22;;;;;;;6.63;4.95;;;;;;;;;;5056997;28;20041;-63
2023/08/24 06:02:49;;;;;;;8.43;6.03;;;;;;;;;;5052105;28;20377;-63
2023/08/24 06:05:17;;;;;;;9.25;5.30;;;;;;;;;;5046860;28;20037;-63
2023/08/24 06:07:43;;;;;;;7.70;5.03;;;;;;;;;;5045790;28;20131;-63
2023/08/24 06:10:09;;;;;;;14.73;5.82;;;;;;;;;;5050339;28;20547;-62
2023/08/24 06:12:36;;;;;;;7.47;4.47;;;;;;;;;;5040709;28;20037;-63
2023/08/24 06:15:04;;;;;;;10.82;5.45;;;;;;;;;;5034911;28;20189;-62
2023/08/24 06:17:30;;;;;;;13.10;5.78;;;;;;;;;;5040240;28;20528;-62
2023/08/24 06:19:57;;;;;;;10.02;5.53;;;;;;;;;;5043261;28;20807;-62
2023/08/24 06:22:23;;;;;;;9.43;5.22;;;;;;;;;;5033592;28;20087;-62
2023/08/24 06:24:49;;;;;;;7.97;5.05;;;;;;;;;;5032647;28;20051;-62
2023/08/24 06:27:15;;;;;;;12.43;6.18;;;;;;;;;;5041774;28;20317;-62
2023/08/24 06:29:44;;;;;;;8.20;5.18;;;;;;;;;;5041816;28;20059;-63
2023/08/24 06:32:10;;;;;;;7.93;5.60;;;;;;;;;;5046023;28;20047;-62
2023/08/24 06:34:36;;;;;;;6.95;5.57;;;;;;;;;;5046560;28;20192;-62
2023/08/24 06:37:03;;;;;;;9.85;4.88;;;;;;;;;;5042011;28;20124;-63
2023/08/24 06:39:29;;;;;;;8.07;4.88;;;18.50;99.90;;;;;;5052961;28;20318;-63
2023/08/24 06:41:55;;;;;;;12.52;6.38;;;18.40;99.90;;;;;;5057548;28;20064;-63
2023/08/24 06:44:24;;;;;;;8.75;5.20;;;;;;;;;;5053844;28;20048;-63
2023/08/24 06:46:50;;;;;;;7.18;4.65;;;;;;;;;;5044778;28;20196;-63
2023/08/24 06:49:16;;;;;;;8.48;5.03;;;;;;;;;;5045942;28;20506;-63
2023/08/24 06:51:42;;;;;;;7.03;4.18;;;;;;;;;;5056380;28;20433;-63
2023/08/24 06:54:08;;;;;;;11.90;4.40;;;;;;;;;;5056932;28;20597;-62
2023/08/24 06:56:34;;;;;;;7.25;4.60;;;;;;;;;;5055009;28;20068;-63
2023/08/24 06:59:00;;;;;;;5.63;3.38;;;;;;;;;;5042609;28;20479;-62
2023/08/24 07:01:26;;;;;;;10.05;4.38;;;;;;;;;;5048206;28;20051;-62
2023/08/24 07:03:52;;;;;;;5.72;3.75;;;18.40;99.90;;;;;;5045122;28;20032;-63
2023/08/24 07:06:18;;;;;;;4.65;3.08;;;;;;;;;;5041885;28;20045;-62
2023/08/24 07:08:44;;;;;;;5.50;4.05;;;;;;;;;;5037368;28;20045;-62
2023/08/24 07:11:13;;;;;;;5.90;4.07;;;;;;;;;;5051584;28;20270;-63
2023/08/24 07:13:39;;;;;;;7.50;3.75;;;;;;;;;;5049343;28;20324;-63
2023/08/24 07:16:07;;;;;;;6.78;3.92;;;;;;;;;;5048480;28;20227;-63
2023/08/24 07:18:33;;;;;;;9.18;3.50;;;;;;;;;;5049743;28;20116;-62
2023/08/24 07:20:59;;;;;;;6.95;3.30;;;;;;;;;;5045279;28;20154;-62
2023/08/24 07:23:25;;;;;;;7.45;3.85;;;;;;;;;;5049623;28;20646;-62
2023/08/24 07:25:52;;;;;;;5.93;3.20;;;;;;;;;;5044219;28;20032;-62
2023/08/24 07:28:18;;;;;;;3.40;2.20;;;;;;;;;;5042501;28;20041;-62
2023/08/24 07:30:44;;;;;;;3.90;2.35;;;;;;;;;;5042952;28;20653;-63
2023/08/24 07:33:11;;;;;;;5.80;2.63;;;;;;;;;;5049385;28;20097;-62
2023/08/24 07:35:37;;;;;;;5.72;2.88;;;;;;;;;;5037615;28;20718;-63
2023/08/24 07:38:04;;;;;;;8.07;3.88;;;;;;;;;;5034761;28;20041;-63
2023/08/24 07:40:30;;;;;;;7.13;3.25;;;;;;;;;;5044513;28;20142;-63
2023/08/24 07:42:57;;;;;;;5.60;3.10;;;;;;;;;;5039825;28;20260;-63
2023/08/24 07:45:23;;;;;;;5.53;3.33;;;;;;;;;;5054491;28;20424;-63
2023/08/24 07:47:49;;;;;;;7.10;3.05;;;;;;;;;;5041432;28;20045;-63
2023/08/24 07:50:16;;;;;;;8.00;2.97;;;;;;;;;;5057371;28;20084;-64
2023/08/24 07:52:42;;;;;;;6.32;2.47;;;;;;;;;;5053887;28;20443;-64
2023/08/24 07:55:09;;;;;;;4.53;3.00;;;;;;;;;;5048672;28;20044;-64
2023/08/24 07:57:36;;;;;;;6.72;3.45;;;;;;;;;;5056641;28;20049;-64
2023/08/24 08:00:02;;;;;;;6.32;3.38;;;;;;;;;;5053139;28;20275;-62
2023/08/24 08:02:28;;;;;;;10.05;3.78;;;;;;;;;;5058282;28;20048;-60
2023/08/24 08:04:58;;;;;;;4.43;2.88;;;;;;;;;;5056811;28;20243;-61
2023/08/24 08:07:24;;;;;;;5.10;3.28;;;;;;;;;;5053239;28;20112;-62
2023/08/24 08:09:50;;;;;;;3.67;2.92;;;;;;;;;;5064511;28;20079;-63
2023/08/24 08:12:16;;;;;;;5.32;3.10;;;;;;;;;;5063713;28;20490;-62
2023/08/24 08:14:42;;;;;;;8.55;3.85;;;;;;;;;;5064679;28;20037;-62
2023/08/24 08:17:09;;;;;;;6.20;3.25;;;;;;;;;;5066250;28;20084;-64
2023/08/24 08:19:37;;;;;;;7.22;4.97;;;;;;;;;;5061778;28;20111;-64
2023/08/24 08:22:04;;;;;;;7.88;4.13;;;;;;;;;;5061706;28;20044;-63
2023/08/24 08:24:30;;;;;;;6.60;4.18;;;;;;;;;;5054000;28;20037;-63
2023/08/24 08:26:56;;;;;;;6.70;4.30;;;;;;;;;;5063434;28;20128;-63
2023/08/24 08:29:22;;;;;;;7.15;4.30;;;;;;;;;;5054849;28;20124;-63
2023/08/24 08:31:48;;;;;;;7.82;4.88;;;;;;;;;;5063455;28;20127;-63
2023/08/24 08:34:14;;;;;;;11.13;4.45;;;18.70;99.90;;;;;;5054946;28;20146;-64
2023/08/24 08:36:41;;;;;;;7.22;4.20;;;;;;;;;;5058725;28;20044;-63
2023/08/24 08:39:08;;;;;;;6.75;4.63;;;;;;;;;;5039019;28;20048;-63
2023/08/24 08:41:38;;;;;;;6.45;3.97;;;;;;;;;;5051959;28;20052;-63
2023/08/24 08:44:06;;;;;;;17.05;5.55;;;;;;;;;;5043591;28;20143;-63
2023/08/24 08:46:35;;;;;;;8.40;5.07;;;20.60;99.90;;;;;;5040843;28;20066;-63
2023/08/24 08:49:01;;;;;;;7.88;4.63;;;;;;;;;;5048868;28;20036;-62
2023/08/24 08:51:27;;;;;;;8.93;4.75;;;;;;;;;;5054932;28;20387;-63
2023/08/24 08:53:54;;;;;;;8.05;4.55;;;;;;;;;;5060977;28;20301;-63
2023/08/24 08:56:20;;;;;;;11.45;4.88;;;;;;;;;;5054164;28;20043;-64
2023/08/24 08:58:47;;;;;;;10.07;5.72;;;;;;;;;;5054593;28;20032;-64
2023/08/24 09:01:15;;;;;;;9.98;5.40;;;;;;;;;;5066419;28;20036;-64
2023/08/24 09:03:44;;;;;;;11.70;5.30;;;;;;;;;;5055403;28;20115;-63
2023/08/24 09:06:10;;;;;;;9.75;5.07;;;;;;;;;;5065455;28;20052;-63
2023/08/24 09:08:37;;;;;;;9.52;5.10;;;;;;;;;;5064976;28;20550;-64
2023/08/24 09:11:03;;;;;;;6.90;4.75;;;;;;;;;;5064875;28;20097;-62
2023/08/24 09:13:29;;;;;;;6.90;4.85;;;;;;;;;;5041246;28;20290;-63
2023/08/24 09:16:03;;;;;;;6.97;4.63;;;;;;;;;;5051400;28;20152;-64
2023/08/24 09:18:39;;;;;;;10.32;4.68;;;21.00;99.90;;;;;;5065336;28;20076;-63
2023/08/24 09:21:09;;;;;;;11.15;4.10;;;21.50;99.90;;;;;;5061816;28;20082;-63
2023/08/24 09:23:35;;;;;;;7.28;4.10;;;21.50;99.90;;;;;;5046854;28;20045;-64
2023/08/24 09:26:01;;;;;;;8.13;4.53;;;21.60;99.90;;;;;;5062724;28;20517;-62
2023/08/24 09:28:26;;;;;;;4.85;3.75;;;21.60;99.90;;;;;;5064961;28;20040;-63
2023/08/24 09:30:54;;;;;;;8.15;4.88;;;21.50;99.90;;;;;;5066017;28;20216;-62
2023/08/24 09:33:22;;;;;;;6.50;4.38;;;21.60;99.90;;;;;;5065939;28;20577;-62
2023/08/24 09:35:54;;;;;;;9.98;4.97;;;21.60;99.90;;;;;;5063277;28;20036;-63
2023/08/24 09:38:23;;;;;;;5.57;4.47;;;21.50;99.90;;;;;;5053292;28;20255;-62
2023/08/24 09:40:56;;;;;;;5.78;4.25;;;21.60;99.90;;;;;;5048790;28;20074;-62
2023/08/24 09:43:23;;;;;;;7.80;4.05;;;21.60;99.90;;;;;;5042645;28;20080;-63
2023/08/24 09:45:58;;;;;;;8.10;4.43;;;21.60;99.90;;;;;;5055178;28;20575;-63
2023/08/24 09:48:24;;;;;;;6.20;4.43;;;21.60;99.90;;;;;;5055808;28;20045;-63
2023/08/24 09:50:51;;;;;;;8.35;4.68;;;21.50;99.90;;;;;;5051387;28;20131;-63
2023/08/24 09:53:20;;;;;;;9.40;4.18;;;21.60;99.90;;;;;;5048667;28;20096;-63
2023/08/24 09:55:52;;;;;;;7.32;4.70;;;21.50;99.90;;;;;;5056038;28;20341;-62
2023/08/24 09:58:19;;;;;;;6.38;4.47;;;21.60;99.90;;;;;;5045643;28;20040;-63
2023/08/24 10:00:47;;;;;;;11.40;4.40;;;21.50;99.90;;;;;;5062014;28;20090;-64
2023/08/24 10:03:20;;;;;;;5.32;3.47;;;21.50;99.90;;;;;;5049912;28;20428;-62
2023/08/24 10:05:58;;;;;;;8.43;4.40;;;21.50;99.90;;;;;;5062347;28;20242;-63
2023/08/24 10:08:29;;;;;;;8.90;4.82;;;21.50;99.90;;;;;;5050120;28;20048;-62
2023/08/24 10:10:59;;;;;;;8.98;5.18;;;21.50;99.90;;;;;;5051891;28;20521;-63
2023/08/24 10:14:00;;;;;;;4.97;3.67;;;21.50;99.90;;;;;;5048681;28;20614;-63
2023/08/24 10:16:28;;;;;;;8.90;4.05;;;21.50;99.90;;;;;;5046804;28;20060;-63
2023/08/24 10:18:55;;;;;;;6.20;4.00;;;21.50;99.90;;;;;;5049845;28;20369;-63
2023/08/24 10:21:24;;;;;;;10.65;4.93;;;21.40;99.90;;;;;;5050958;28;20045;-63
2023/08/24 10:23:53;;;;;;;7.50;4.55;;;21.40;99.90;;;;;;5052889;28;20040;-63
2023/08/24 10:26:20;;;;;;;8.57;5.53;;;21.40;99.90;;;;;;5062947;28;20081;-63
2023/08/24 10:28:47;;;;;;;9.85;5.00;;;21.40;99.90;;;;;;5067745;28;20036;-63
2023/08/24 10:31:13;;;;;;;8.68;6.00;;;21.40;99.90;;;;;;5017898;28;20072;-63
2023/08/24 10:33:40;;;;;;;10.23;4.70;;;21.40;99.90;;;;;;5059251;28;20676;-63
2023/08/24 10:36:07;;;;;;;7.80;4.13;;;21.40;99.90;;;;;;5060417;28;20122;-63
2023/08/24 10:38:39;;;;;;;8.02;5.00;;;21.40;99.90;;;;;;5046914;28;20119;-63
2023/08/24 10:41:06;;;;;;;8.70;4.55;;;21.30;99.90;;;;;;5041333;28;20103;-62
2023/08/24 10:43:38;;;;;;;10.18;6.10;;;21.30;99.90;;;;;;5043097;28;20088;-63
2023/08/24 10:46:04;;;;;;;7.22;4.97;;;21.30;99.90;;;;;;5049209;28;20032;-63
2023/08/24 10:48:42;;;;;;;8.05;5.35;;;21.30;99.90;;;;;;5050122;28;20435;-63
2023/08/24 10:51:13;;;;;;;8.27;5.25;;;21.30;99.90;;;;;;5040651;28;20043;-63
2023/08/24 10:53:40;;;;;;;7.80;5.60;;;21.30;99.90;;;;;;5048466;28;20048;-62
2023/08/24 10:56:14;;;;;;;13.40;6.63;;;21.30;99.90;;;;;;5049039;28;20278;-63
2023/08/24 10:58:40;;;;;;;9.60;5.53;;;21.30;99.90;;;;;;5043928;28;20035;-63
2023/08/24 11:01:06;;;;;;;14.32;7.63;;;21.30;99.90;;;;;;5059832;28;20511;-63
2023/08/24 11:03:33;;;;;;;13.65;6.82;;;21.30;99.90;;;;;;5053460;28;20044;-62
2023/08/24 11:06:00;;;;;;;10.90;7.35;;;21.30;99.90;;;;;;5066367;28;20264;-62
2023/08/24 11:08:48;;;;;;;9.07;6.63;;;21.30;99.90;;;;;;5064438;28;20052;-63
2023/08/24 11:11:23;;;;;;;17.52;8.55;;;21.30;99.90;;;;;;5065040;28;20139;-63
2023/08/24 11:14:28;;;;;;;10.00;6.50;;;21.20;99.90;;;;;;5067768;28;20067;-63
2023/08/24 11:16:57;;;;;;;10.23;7.53;;;21.20;99.90;;;;;;5057268;28;20203;-63
2023/08/24 11:19:23;;;;;;;12.00;7.80;;;21.20;99.90;;;;;;5041820;28;20267;-63
2023/08/24 11:21:51;;;;;;;9.50;8.00;;;21.20;99.90;;;;;;5029970;28;20100;-63
2023/08/24 11:24:19;;;;;;;10.82;7.43;;;21.20;99.90;;;;;;5060132;28;20048;-63
2023/08/24 11:26:47;;;;;;;12.50;8.20;;;21.20;99.90;;;;;;5057339;28;20126;-63
2023/08/24 11:29:15;;;;;;;14.35;7.40;;;21.20;99.90;;;;;;5058595;28;20231;-62
2023/08/24 11:31:41;;;;;;;13.82;7.65;;;21.20;99.90;;;;;;5060856;28;20648;-63
2023/08/24 11:34:07;;;;;;;10.90;7.22;;;21.20;99.90;;;;;;5052204;28;20419;-63
2023/08/24 11:36:47;;;;;;;14.80;8.55;;;21.20;99.90;;;;;;5055862;28;20288;-63
2023/08/24 11:39:20;;;;;;;13.07;7.93;;;21.20;99.90;;;;;;5048906;28;20068;-63
2023/08/24 11:42:09;;;;;;;13.25;7.38;;;21.20;99.90;;;;;;5060647;28;20048;-63
2023/08/24 11:44:51;;;;;;;12.10;8.05;;;21.20;99.90;;;;;;5059580;28;20101;-63
2023/08/24 11:47:19;;;;;;;9.88;7.53;;;21.20;99.90;;;;;;5057328;28;20063;-63
2023/08/24 11:49:46;;;;;;;12.30;9.32;;;21.20;99.90;;;;;;5058970;28;20092;-62
2023/08/24 11:52:15;;;;;;;13.05;8.57;;;21.20;99.90;;;;;;5056970;28;20287;-63
2023/08/24 11:54:42;;;;;;;9.70;6.97;;;21.20;99.90;;;;;;5053360;28;20063;-63
2023/08/24 11:57:08;;;;;;;9.20;7.78;;;21.20;99.90;;;;;;5045551;28;20048;-63
2023/08/24 11:59:35;;;;;;;11.40;8.15;;;21.20;99.90;;;;;;5048286;28;20488;-62
2023/08/24 12:02:02;;;;;;;14.27;9.77;;;21.20;99.90;;;;;;5046475;28;20040;-62
2023/08/24 12:04:28;;;;;;;16.42;10.55;;;21.20;99.90;;;;;;5051117;28;20495;-63
2023/08/24 12:06:54;;;;;;;13.50;9.00;;;21.30;99.90;;;;;;5052227;28;20250;-63
2023/08/24 12:09:20;;;;;;;12.63;9.90;;;21.30;99.90;;;;;;5048550;28;20040;-64
2023/08/24 12:11:46;;;;;;;12.63;9.73;;;21.20;99.90;;;;;;5058452;28;20285;-63
2023/08/24 12:14:17;;;;;;;17.42;9.80;;;21.20;99.90;;;;;;5057958;28;20040;-63
2023/08/24 12:16:43;;;;;;;14.50;10.10;;;21.20;99.90;;;;;;5054430;28;20071;-62
2023/08/24 12:19:10;;;;;;;16.27;8.73;;;21.20;99.90;;;;;;5053956;28;20156;-63
2023/08/24 12:21:35;;;;;;;12.73;10.05;;;21.20;99.90;;;;;;5060194;28;20995;-63
2023/08/24 12:24:06;;;;;;;13.52;10.30;;;21.20;99.90;;;;;;5055995;28;20211;-63
2023/08/24 12:26:33;;;;;;;11.95;8.70;;;21.20;99.90;;;;;;5054746;28;20211;-62
2023/08/24 12:29:06;;;;;;;13.73;9.27;;;21.20;99.90;;;;;;5044925;28;20097;-62
2023/08/24 12:31:32;;;;;;;12.38;9.32;;;21.20;99.90;;;;;;5058014;28;20206;-63
2023/08/24 12:34:03;;;;;;;14.55;10.52;;;21.30;99.90;;;;;;5048190;28;20169;-63
2023/08/24 12:36:30;;;;;;;20.23;10.80;;;21.30;99.90;;;;;;5064307;28;20036;-63
2023/08/24 12:38:58;;;;;;;14.65;9.15;;;21.30;99.90;;;;;;5041156;28;20040;-62
2023/08/24 12:41:24;;;;;;;18.75;11.23;;;21.30;99.90;;;;;;5058263;28;20044;-63
2023/08/24 12:43:51;;;;;;;13.80;9.82;;;21.30;99.90;;;;;;5052442;28;20033;-65
2023/08/24 12:46:17;;;;;;;13.68;9.52;;;21.40;99.90;;;;;;5057760;28;20040;-62
2023/08/24 12:48:42;;;;;;;17.35;10.13;;;21.40;99.90;;;;;;5047746;28;20505;-63
2023/08/24 12:51:08;;;;;;;11.38;9.25;;;21.40;99.90;;;;;;5055519;28;20591;-63
2023/08/24 12:53:34;;;;;;;14.25;9.70;;;21.40;99.90;;;;;;5046943;28;20294;-63
2023/08/24 12:56:00;;;;;;;12.77;10.05;;;21.50;99.90;;;;;;5057038;28;20032;-63
2023/08/24 12:58:25;;;;;;;14.32;11.35;;;21.50;99.90;;;;;;5049918;28;20051;-61
2023/08/24 13:00:51;;;;;;;14.32;11.18;;;21.50;99.90;;;;;;5057173;28;20043;-63
2023/08/24 13:03:17;;;;;;;14.82;11.18;;;21.50;99.90;;;;;;5057108;28;20344;-63
2023/08/24 13:05:43;;;;;;;14.82;11.65;;;21.50;99.90;;;;;;5051603;28;20291;-63
2023/08/24 13:08:09;;;;;;;14.98;11.88;;;21.50;99.90;;;;;;5017471;28;20716;-63
2023/08/24 13:10:36;;;;;;;17.85;12.07;;;21.50;99.90;;;;;;5045364;28;20119;-63
2023/08/24 13:13:03;;;;;;;17.20;11.93;;;21.50;99.90;;;;;;5051647;28;20041;-62
2023/08/24 13:15:29;;;;;;;13.40;10.77;;;21.50;99.90;;;;;;5053107;28;20067;-62
2023/08/24 13:17:56;;;;;;;14.70;13.27;;;21.40;99.90;;;;;;5058248;28;20536;-63
2023/08/24 13:20:22;;;;;;;17.50;12.43;;;21.40;99.90;;;;;;5049185;28;20036;-61
2023/08/24 13:22:48;;;;;;;14.38;11.63;;;21.40;99.90;;;;;;5056112;28;20114;-63
2023/08/24 13:25:14;;;;;;;16.17;12.80;;;21.40;99.90;;;;;;5037486;28;20178;-62
2023/08/24 13:27:40;;;;;;;20.55;13.13;;;21.40;99.90;;;;;;5042696;28;20033;-63
2023/08/24 13:30:06;;;;;;;17.98;13.30;;;21.40;99.90;;;;;;5051770;28;20306;-63
2023/08/24 13:32:32;;;;;;;13.25;11.85;;;21.40;99.90;;;;;;5047873;28;20450;-63
2023/08/24 13:34:58;;;;;;;16.00;12.75;;;21.40;99.90;;;;;;5057240;28;20048;-62
2023/08/24 13:37:24;;;;;;;15.25;12.55;;;21.40;99.90;;;;;;5055801;28;20104;-63
2023/08/24 13:39:51;;;;;;;17.10;13.07;;;21.40;99.90;;;;;;5054176;28;20122;-63
2023/08/24 13:42:17;;;;;;;13.43;10.98;;;21.40;99.90;;;;;;5049216;28;20048;-62
2023/08/24 13:44:43;;;;;;;13.98;12.48;;;21.30;99.90;;;;;;5062864;28;20055;-63
2023/08/24 13:47:08;;;;;;;14.95;12.82;;;21.30;99.90;;;;;;5049602;28;20045;-63
2023/08/24 13:49:34;;;;;;;14.18;12.63;;;21.40;99.90;;;;;;5050249;28;20507;-63
2023/08/24 13:52:00;;;;;;;14.20;11.95;;;21.30;99.90;;;;;;5044483;28;20302;-63